Time;durP1;ratioP1;P1;durP2;ratioP2;P2;SDS_P1;SDS_P2;PMS_P1;PMS_P2;Temp;Humidity;BMP_temperature;BMP_pressure;BME280_temperature;BME280_humidity;BME280_pressure;Samples;Min_cycle;Max_cycle;Signal;HPM_P1;HPM_P2
2023/12/28 00:00:36;;;;;;;7.40;3.65;;;;;;;;;;4386801;32;70439;-72
2023/12/28 00:03:23;;;;;;;6.82;4.05;;;;;;;;;;4386534;32;69313;-72
2023/12/28 00:06:10;;;;;;;6.97;4.22;;;;;;;;;;4386745;32;66771;-73
2023/12/28 00:08:56;;;;;;;5.87;3.80;;;;;;;;;;4375443;32;71626;-71
2023/12/28 00:11:43;;;;;;;4.90;3.20;;;;;;;;;;4386490;32;65373;-72
2023/12/28 00:14:30;;;;;;;5.40;3.30;;;;;;;;;;4397537;32;67442;-72
2023/12/28 00:17:16;;;;;;;4.75;3.08;;;;;;;;;;4398702;32;67631;-72
2023/12/28 00:20:03;;;;;;;;;;;;;;;;;;4388904;32;71493;-71
2023/12/28 00:22:50;;;;;;;5.40;3.58;;;;;;;;;;4399808;32;66435;-73
2023/12/28 00:25:36;;;;;;;5.70;3.53;;;;;;;;;;4397474;32;67433;-72
2023/12/28 00:28:24;;;;;;;4.57;3.25;;;;;;;;;;4387774;32;60079;-73
2023/12/28 00:31:11;;;;;;;4.95;3.40;;;;;;;;;;4375242;32;70845;-72
2023/12/28 00:33:58;;;;;;;5.50;3.40;;;;;;;;;;4385671;32;69517;-72
2023/12/28 00:36:44;;;;;;;5.43;3.58;;;;;;;;;;4396892;32;67001;-72
2023/12/28 00:39:31;;;;;;;5.37;3.60;;;;;;;;;;4375927;32;70606;-72
2023/12/28 00:45:02;;;;;;;6.28;3.45;;;;;;;;;;3847289;37;43655;-72
2023/12/28 00:47:52;;;;;;;5.57;3.37;;;;;;;;;;4388319;32;61745;-72
2023/12/28 00:50:38;;;;;;;5.47;3.60;;;;;;;;;;4410912;32;69725;-72
2023/12/28 00:53:26;;;;;;;;;;;;;;;;;;4398470;32;69211;-72
2023/12/28 00:56:12;;;;;;;6.07;4.27;;;;;;;;;;4399027;32;67754;-73
2023/12/28 00:59:01;;;;;;;5.50;4.00;;;;;;;;;;4409482;32;71665;-71
2023/12/28 01:01:47;;;;;;;6.05;4.20;;;;;;;;;;4388332;32;64781;-72
2023/12/28 01:04:34;;;;;;;;;;;;;;;;;;4409854;32;67120;-71
2023/12/28 01:07:20;;;;;;;6.15;4.10;;;;;;;;;;4411212;32;58632;-72
2023/12/28 01:10:08;;;;;;;6.07;4.20;;;;;;;;;;4387187;32;73267;-71
2023/12/28 01:12:54;;;;;;;6.03;4.10;;;;;;;;;;4376923;32;65623;-72
2023/12/28 01:15:41;;;;;;;5.78;4.18;;;;;;;;;;4398766;32;66548;-72
2023/12/28 01:18:27;;;;;;;7.55;4.37;;;;;;;;;;4387015;32;61035;-72
2023/12/28 01:21:14;;;;;;;5.62;4.03;;;;;;;;;;4376696;32;70519;-72
2023/12/28 01:24:01;;;;;;;5.57;4.05;;;;;;;;;;4387477;32;70745;-73
2023/12/28 01:26:45;;;;;;;5.80;4.07;;;;;;;;;;3847401;37;43100;-72
2023/12/28 01:29:34;;;;;;;5.45;3.75;;;;;;;;;;4409894;32;60286;-73
2023/12/28 01:32:21;;;;;;;5.25;3.47;;;;;;;;;;4398869;32;70709;-72
2023/12/28 01:35:08;;;;;;;;;;;;;;;;;;4399266;32;69016;-72
2023/12/28 01:37:55;;;;;;;6.87;4.40;;;;;;;;;;4412190;32;67781;-72
2023/12/28 01:40:46;;;;;;;5.50;3.85;;;;;;;;;;4388220;32;71699;-72
2023/12/28 01:43:32;;;;;;;6.20;4.10;;;;;;;;;;4398845;32;65743;-72
2023/12/28 01:46:21;;;;;;;5.95;4.40;;;;;;;;;;4387358;32;68079;-72
2023/12/28 01:49:07;;;;;;;5.22;3.65;;;;;;;;;;4387708;32;59904;-72
2023/12/28 01:51:54;;;;;;;6.43;4.05;;;;;;;;;;4398583;32;71229;-72
2023/12/28 01:54:41;;;;;;;5.45;3.78;;;;;;;;;;4398897;32;66015;-71
2023/12/28 01:57:28;;;;;;;6.05;4.00;;;;;;;;;;4388217;32;67912;-72
2023/12/28 02:00:15;;;;;;;4.72;3.17;;;;;;;;;;4398815;32;60672;-72
2023/12/28 02:03:03;;;;;;;4.65;3.42;;;;;;;;;;4398786;32;70076;-71
2023/12/28 02:05:50;;;;;;;5.28;3.42;;;;;;;;;;4398427;32;69159;-72
2023/12/28 02:08:36;;;;;;;4.70;3.40;;;;;;;;;;4398022;32;68944;-72
2023/12/28 02:11:23;;;;;;;4.87;3.65;;;;;;;;;;4376256;32;72294;-72
2023/12/28 02:14:10;;;;;;;7.03;3.60;;;;;;;;;;4398871;32;65305;-72
2023/12/28 02:17:03;;;;;;;4.35;3.00;;;;;;;;;;4398614;32;69442;-72
2023/12/28 02:19:54;;;;;;;5.57;3.55;;;;;;;;;;4386892;32;68394;-73
2023/12/28 02:22:41;;;;;;;6.32;3.90;;;;;;;;;;4398296;32;71793;-72
2023/12/28 02:25:28;;;;;;;4.82;3.33;;;;;;;;;;4398101;32;64996;-72
2023/12/28 02:28:15;;;;;;;4.57;3.28;;;;;;;;;;4398370;32;67438;-71
2023/12/28 02:31:02;;;;;;;4.80;3.53;;;;;;;;;;4387885;32;60666;-72
2023/12/28 02:33:58;;;;;;;5.37;3.60;;;;;;;;;;3868809;36;43946;-72
2023/12/28 02:36:46;;;;;;;5.25;3.37;;;;;;;;;;4393297;32;60319;-72
2023/12/28 02:39:33;;;;;;;5.18;3.33;;;;;;;;;;4389745;32;73073;-72
2023/12/28 02:42:20;;;;;;;7.05;3.72;;;;;;;;;;4379364;32;70232;-72
2023/12/28 02:45:07;;;;;;;6.45;3.67;;;;;;;;;;4389977;32;68820;-72
2023/12/28 02:47:54;;;;;;;4.65;3.20;;;;;;;;;;4414133;32;70823;-71
2023/12/28 02:50:41;;;;;;;5.60;3.65;;;;;;;;;;4403481;32;65918;-72
2023/12/28 02:53:28;;;;;;;7.18;3.80;;;;;;;;;;4392719;32;66548;-72
2023/12/28 02:56:15;;;;;;;5.93;4.03;;;;;;;;;;4403559;32;60153;-72
2023/12/28 02:59:01;;;;;;;6.18;3.70;;;;;;;;;;4403167;32;70357;-72
2023/12/28 03:01:48;;;;;;;6.80;4.35;;;;;;;;;;4389588;32;66204;-72
2023/12/28 03:04:34;;;;;;;6.40;3.92;;;;;;;;;;4413838;32;67143;-72
2023/12/28 03:07:21;;;;;;;7.65;4.35;;;;;;;;;;4379070;32;60651;-72
2023/12/28 03:10:08;;;;;;;5.82;3.92;;;;;;;;;;4379262;32;71521;-72
2023/12/28 03:12:55;;;;;;;7.60;4.18;;;;;;;;;;4389550;32;68207;-72
2023/12/28 03:15:42;;;;;;;6.22;3.75;;;;;;;;;;4414138;32;67112;-73
2023/12/28 03:21:12;;;;;;;6.15;3.58;;;;;;;;;;3849026;37;43658;-72
2023/12/28 03:23:59;;;;;;;5.80;3.90;;;;;;;;;;4392023;32;59060;-72
2023/12/28 03:26:47;;;;;;;6.00;3.97;;;;;;;;;;4379492;32;69874;-73
2023/12/28 03:29:34;;;;;;;6.18;3.80;;;;;;;;;;4400119;32;69624;-73
2023/12/28 03:32:21;;;;;;;6.32;3.42;;;;;;;;;;4398952;32;66665;-72
2023/12/28 03:35:09;;;;;;;6.37;4.30;;;;;;;;;;4388504;32;71611;-72
2023/12/28 03:37:56;;;;;;;6.10;3.67;;;;;;;;;;4387675;32;64625;-73
2023/12/28 03:40:46;;;;;;;5.10;3.70;;;;;;;;;;4388351;32;67116;-72
2023/12/28 03:43:33;;;;;;;5.62;3.60;;;;;;;;;;4409826;32;59026;-72
2023/12/28 03:46:20;;;;;;;5.55;3.55;;;;;;;;;;4398656;32;71705;-72
2023/12/28 03:49:06;;;;;;;4.93;3.40;;;;;;;;;;4388000;32;64937;-73
2023/12/28 03:51:53;;;;;;;5.07;3.60;;;;;;;;;;4387633;32;67907;-72
2023/12/28 03:54:40;;;;;;;4.93;3.70;;;;;;;;;;4394153;32;59165;-72
2023/12/28 03:57:27;;;;;;;6.47;4.20;;;;;;;;;;4393411;32;71195;-73
2023/12/28 04:00:16;;;;;;;5.78;4.07;;;;;;;;;;4382437;32;69010;-72
2023/12/28 04:03:02;;;;;;;6.25;3.80;;;;;;;;;;4371928;32;68954;-71
2023/12/28 04:05:51;;;;;;;7.55;4.72;;;;;;;;;;4404596;32;71783;-72
2023/12/28 04:08:38;;;;;;;6.65;4.05;;;;;;;;;;4393668;32;63835;-72
2023/12/28 04:11:24;;;;;;;6.37;4.65;;;;;;;;;;4393745;32;69433;-72
2023/12/28 04:14:12;;;;;;;7.10;4.53;;;;;;;;;;4393791;32;66771;-72
2023/12/28 04:19:42;;;;;;;7.57;4.28;;;;;;;;;;3847170;37;43501;-72
2023/12/28 04:22:29;;;;;;;6.53;4.55;;;;;;;;;;4388371;32;60114;-72
2023/12/28 04:25:19;;;;;;;7.72;4.95;;;;;;;;;;4388317;32;70648;-72
2023/12/28 04:29:00;;;;;;;6.20;4.32;;;;;;;;;;3847452;37;43829;-74
2023/12/28 04:31:47;;;;;;;8.13;5.00;;;;;;;;;;4399319;32;60143;-72
2023/12/28 04:34:34;;;;;;;6.22;4.45;;;;;;;;;;4409781;32;70721;-72
2023/12/28 04:37:21;;;;;;;5.65;3.53;;;;;;;;;;4399088;32;69338;-71
2023/12/28 04:40:08;;;;;;;4.95;3.20;;;;;;;;;;4409760;32;66824;-72
2023/12/28 04:42:55;;;;;;;3.95;2.28;;;;;;;;;;4398826;32;71663;-72
2023/12/28 04:45:41;;;;;;;5.70;3.65;;;;;;;;;;4398932;32;65895;-72
2023/12/28 04:48:28;;;;;;;6.03;3.55;;;;;;;;;;4409510;32;67431;-72
2023/12/28 04:51:15;;;;;;;7.55;3.85;;;;;;;;;;4388299;32;59247;-72
2023/12/28 04:54:02;;;;;;;6.57;3.90;;;;;;;;;;4398108;32;70496;-71
2023/12/28 04:56:48;;;;;;;9.23;5.07;;;;;;;;;;4387907;32;65910;-72
2023/12/28 04:59:42;;;;;;;8.85;5.72;;;;;;;;;;4398340;32;65501;-72
2023/12/28 05:02:28;;;;;;;8.73;6.03;;;;;;;;;;4398463;32;60485;-72
2023/12/28 05:05:16;;;;;;;7.60;4.80;;;;;;;;;;4400496;32;70712;-71
2023/12/28 05:08:02;;;;;;;9.57;6.37;;;;;;;;;;4389972;32;68757;-71
2023/12/28 05:10:49;;;;;;;8.40;5.57;;;;;;;;;;4399171;32;67389;-71
2023/12/28 05:13:35;;;;;;;8.40;5.80;;;;;;;;;;4387870;32;71961;-72
2023/12/28 05:16:22;;;;;;;10.38;6.05;;;;;;;;;;4399205;32;65716;-71
2023/12/28 05:19:09;;;;;;;9.75;6.78;;;;;;;;;;4387738;32;68967;-72
2023/12/28 05:21:56;;;;;;;10.80;6.60;;;;;;;;;;4387644;32;68205;-71
2023/12/28 05:24:43;;;;;;;10.40;6.60;;;;;;;;;;4398486;32;72430;-72
2023/12/28 05:27:30;;;;;;;12.85;6.70;;;;;;;;;;4408683;32;64690;-71
2023/12/28 05:30:16;;;;;;;10.30;6.03;;;;;;;;;;4398297;32;66768;-72
2023/12/28 05:33:04;;;;;;;11.02;6.80;;;;;;;;;;4397779;32;61593;-72
2023/12/28 05:35:50;;;;;;;10.07;5.72;;;;;;;;;;4398170;32;70504;-71
2023/12/28 05:38:37;;;;;;;10.38;6.85;;;;;;;;;;4383598;32;70262;-72
2023/12/28 05:41:24;;;;;;;10.95;6.82;;;;;;;;;;4376883;32;68727;-71
2023/12/28 05:44:10;;;;;;;10.45;6.62;;;;;;;;;;4387727;32;61146;-72
2023/12/28 05:46:57;;;;;;;12.65;7.10;;;;;;;;;;4387876;32;69647;-72
2023/12/28 05:49:42;;;;;;;6.87;4.40;;;;;;;;;;3847293;37;43872;-72
2023/12/28 05:52:29;;;;;;;7.68;4.45;;;;;;;;;;4399406;32;60330;-72
2023/12/28 05:55:15;;;;;;;8.25;5.35;;;;;;;;;;4372501;32;68891;-72
2023/12/28 05:58:02;;;;;;;8.30;5.65;;;;;;;;;;4383919;32;69545;-71
2023/12/28 06:00:49;;;;;;;7.53;5.53;;;;;;;;;;4383665;32;66800;-72
2023/12/28 06:03:36;;;;;;;8.05;4.03;;;;;;;;;;4394201;32;71773;-72
2023/12/28 06:06:23;;;;;;;8.63;5.28;;;;;;;;;;4373076;32;65941;-72
2023/12/28 06:09:11;;;;;;;8.93;5.97;;;;;;;;;;4383486;32;67111;-72
2023/12/28 06:11:54;;;;;;;12.20;6.95;;;;;;;;;;3847381;37;43838;-72
2023/12/28 06:14:41;;;;;;;11.35;7.03;;;;;;;;;;4398759;32;59990;-73
2023/12/28 06:17:28;;;;;;;11.85;6.85;;;;;;;;;;4387662;32;71795;-72
2023/12/28 06:20:15;;;;;;;13.13;7.25;;;;;;;;;;4408969;32;69857;-72
2023/12/28 06:23:01;;;;;;;11.12;6.60;;;;;;;;;;4388244;32;67501;-71
2023/12/28 06:25:48;;;;;;;11.32;6.25;;;;;;;;;;4387448;32;72428;-72
2023/12/28 06:28:35;;;;;;;11.23;6.78;;;;;;;;;;4401785;32;65935;-72
2023/12/28 06:31:22;;;;;;;;;;;;;;;;;;4401007;32;66343;-72
2023/12/28 06:34:09;;;;;;;11.48;6.85;;;;;;;;;;4389535;32;60011;-72
2023/12/28 06:36:55;;;;;;;13.18;8.05;;;;;;;;;;4387907;32;72444;-71
2023/12/28 06:39:42;;;;;;;14.45;6.35;;;;;;;;;;4376988;32;66633;-72
2023/12/28 06:42:29;;;;;;;10.55;6.62;;;;;;;;;;4376595;32;68059;-71
2023/12/28 06:45:16;;;;;;;9.57;5.85;;;;;;;;;;4398477;32;58772;-73
2023/12/28 06:50:52;;;;;;;12.35;6.53;;;;;;;;;;3851073;37;43935;-72
2023/12/28 06:53:39;;;;;;;;;;;;;;;;;;4412171;32;59217;-71
2023/12/28 06:56:25;;;;;;;8.90;5.18;;;;;;;;;;4389155;32;70506;-72
2023/12/28 06:59:12;;;;;;;8.80;4.75;;;;;;;;;;4388161;32;68168;-72
2023/12/28 07:01:59;;;;;;;7.65;5.10;;;;;;;;;;4388373;32;67685;-72
2023/12/28 07:04:45;;;;;;;6.75;3.95;;;;;;;;;;4398942;32;72159;-71
2023/12/28 07:07:32;;;;;;;8.38;5.45;;;;;;;;;;4398569;32;66738;-71
2023/12/28 07:13:03;;;;;;;8.73;5.50;;;;;;;;;;3868691;36;43463;-72
2023/12/28 07:15:49;;;;;;;9.85;4.72;;;;;;;;;;3847373;37;43832;-72
2023/12/28 07:18:36;;;;;;;6.85;4.05;;;;;;;;;;4388930;32;58924;-72
2023/12/28 07:21:22;;;;;;;5.70;3.87;;;;;;;;;;4398448;32;69267;-72
2023/12/28 07:24:26;;;;;;;7.37;5.75;;;;;;;;;;3847279;37;43950;-71
2023/12/28 07:27:13;;;;;;;6.68;5.05;;;;;;;;;;4411337;32;60031;-71
2023/12/28 07:30:01;;;;;;;10.80;5.40;;;;;;;;;;4388215;32;70554;-72
2023/12/28 07:32:48;;;;;;;7.43;4.37;;;;;;;;;;4388340;32;68371;-71
2023/12/28 07:35:34;;;;;;;7.50;5.10;;;;;;;;;;4388200;32;68080;-72
2023/12/28 07:38:21;;;;;;;5.95;4.30;;;;;;;;;;4399011;32;71740;-72
2023/12/28 07:41:08;;;;;;;6.78;4.47;;;;;;;;;;4398807;32;65859;-72
2023/12/28 07:43:54;;;;;;;7.62;5.00;;;;;;;;;;4398854;32;66372;-72
2023/12/28 07:46:41;;;;;;;7.60;5.20;;;;;;;;;;4399279;32;59092;-72
2023/12/28 07:49:30;;;;;;;6.50;4.00;;;;;;;;;;4377019;32;70507;-71
2023/12/28 07:52:17;;;;;;;7.07;4.82;;;;;;;;;;4409367;32;65974;-72
2023/12/28 07:55:04;;;;;;;7.45;5.22;;;;;;;;;;4393577;32;68605;-72
2023/12/28 07:57:50;;;;;;;;;;;;;;;;;;4394689;32;59098;-71
2023/12/28 08:00:38;;;;;;;5.25;4.07;;;;;;;;;;4383319;32;69439;-72
2023/12/28 08:03:25;;;;;;;7.43;4.60;;;;;;;;;;4393814;32;69136;-72
2023/12/28 08:06:12;;;;;;;;;;;;;;;;;;4394302;32;67631;-72
2023/12/28 08:09:02;;;;;;;7.97;4.30;;;;;;;;;;4383137;32;70660;-72
2023/12/28 08:11:48;;;;;;;6.22;3.90;;;;;;;;;;4382355;32;67462;-71
2023/12/28 08:14:35;;;;;;;6.65;4.10;;;;;;;;;;4393694;32;69280;-71
2023/12/28 08:17:22;;;;;;;6.93;3.72;;;;;;;;;;4404462;32;67757;-71
2023/12/28 08:20:09;;;;;;;6.10;3.85;;;;;;;;;;4393523;32;71911;-73
2023/12/28 08:22:55;;;;;;;6.03;3.55;;;;;;;;;;4392438;32;65845;-71
2023/12/28 08:25:41;;;;;;;6.40;4.62;;;;;;;;;;4393743;32;67742;-72
2023/12/28 08:28:28;;;;;;;5.05;3.55;;;;;;;;;;4393943;32;60116;-71
2023/12/28 08:31:16;;;;;;;6.68;4.72;;;;;;;;;;4383148;32;70058;-71
2023/12/28 08:34:02;;;;;;;6.78;5.00;;;;;;;;;;4399147;32;68155;-72
2023/12/28 08:36:49;;;;;;;7.90;4.60;;;;;;;;;;4384916;32;66920;-72
2023/12/28 08:39:36;;;;;;;6.47;4.28;;;;;;;;;;4394369;32;60062;-73
2023/12/28 08:42:24;;;;;;;6.25;3.50;;;;;;;;;;4383221;32;69687;-71
2023/12/28 08:45:11;;;;;;;6.70;4.53;;;;;;;;;;4371902;32;68904;-72
2023/12/28 08:47:58;;;;;;;7.28;4.93;;;;;;;;;;4372236;32;64478;-72
2023/12/28 08:50:44;;;;;;;6.30;4.75;;;;;;;;;;4372657;32;71835;-72
2023/12/28 08:53:31;;;;;;;9.20;4.50;;;;;;;;;;4383170;32;65477;-72
2023/12/28 08:59:03;;;;;;;6.55;4.40;;;;;;;;;;3847501;37;43418;-71
2023/12/28 09:01:53;;;;;;;9.00;5.28;;;;;;;;;;4409976;32;59217;-72
2023/12/28 09:04:39;;;;;;;7.32;4.30;;;;;;;;;;4388207;32;69803;-72
2023/12/28 09:07:20;;;;;;;6.45;4.25;;;;;;;;;;3847314;37;43450;-73
2023/12/28 09:10:07;;;;;;;8.13;4.97;;;;;;;;;;4377360;32;61019;-71
2023/12/28 09:12:53;;;;;;;7.55;5.00;;;;;;;;;;4409572;32;69648;-72
2023/12/28 09:15:40;;;;;;;6.75;4.50;;;;;;;;;;4398980;32;69484;-72
2023/12/28 09:18:27;;;;;;;6.47;4.70;;;;;;;;;;4398921;32;67929;-72
2023/12/28 09:21:13;;;;;;;6.40;4.30;;;;;;;;;;4398920;32;71694;-72
2023/12/28 09:24:00;;;;;;;7.25;4.30;;;;;;;;;;4398810;32;64941;-72
2023/12/28 09:26:47;;;;;;;6.37;4.30;;;;;;;;;;4398236;32;66827;-72
2023/12/28 09:29:34;;;;;;;6.43;4.65;;;;;;;;;;4398927;32;60361;-71
2023/12/28 09:32:22;;;;;;;7.07;4.20;;;;;;;;;;4409415;32;71660;-71
2023/12/28 09:35:09;;;;;;;6.40;4.22;;;;;;;;;;4402332;32;67424;-72
2023/12/28 09:37:56;;;;;;;4.85;3.62;;;;;;;;;;4398669;32;67796;-71
2023/12/28 09:40:43;;;;;;;6.90;4.40;;;;;;;;;;4398441;32;60682;-72
2023/12/28 09:43:36;;;;;;;6.03;3.80;;;;;;;;;;4387633;32;71949;-72
2023/12/28 09:46:46;;;;;;;6.12;4.82;;;;;;;;;;3824129;37;43920;-72
2023/12/28 09:49:33;;;;;;;8.02;4.37;;;;;;;;;;4384367;32;60232;-72
2023/12/28 09:52:20;;;;;;;6.32;4.40;;;;;;;;;;4362140;32;71136;-72
2023/12/28 09:55:08;;;;;;;5.57;3.42;;;;;;;;;;4369840;32;70252;-72
2023/12/28 09:57:56;;;;;;;6.15;4.43;;;;;;;;;;4368764;32;66731;-72
2023/12/28 10:00:45;;;;;;;5.45;4.18;;;;;;;;;;4356789;32;72766;-72
2023/12/28 10:03:32;;;;;;;6.47;4.32;;;;;;;;;;4357044;32;67847;-72
2023/12/28 10:06:19;;;;;;;7.50;4.35;;;;;;;;;;4367327;32;67342;-73
2023/12/28 10:09:07;;;;;;;5.85;4.15;;;;;;;;;;4379214;32;59198;-72
2023/12/28 10:11:55;;;;;;;6.72;4.35;;;;;;;;;;4368301;32;71972;-71
2023/12/28 10:14:42;;;;;;;5.62;4.00;;;;;;;;;;4380325;32;65965;-72
2023/12/28 10:17:29;;;;;;;;;;;;;;;;;;4381626;32;68347;-72
2023/12/28 10:20:16;;;;;;;6.47;4.40;;;;;;;;;;4368378;32;58311;-73
2023/12/28 10:23:05;;;;;;;6.82;4.62;;;;;;;;;;4368605;32;69279;-72
2023/12/28 10:25:55;;;;;;;5.12;3.70;;;;;;;;;;4378764;32;68082;-72
2023/12/28 10:28:42;;;;;;;6.87;4.50;;;;;;;;;;4378695;32;68021;-71
2023/12/28 10:31:29;;;;;;;7.43;4.05;;;;;;;;;;4389353;32;71912;-72
2023/12/28 10:34:16;;;;;;;6.45;4.25;;;;;;;;;;4378995;32;65957;-71
2023/12/28 10:37:04;;;;;;;7.30;4.20;;;;;;;;;;4378730;32;69121;-71
2023/12/28 10:39:53;;;;;;;5.43;3.80;;;;;;;;;;4368031;32;67453;-72
2023/12/28 10:43:02;;;;;;;5.62;4.20;;;;;;;;;;4377485;32;69452;-72
2023/12/28 10:45:50;;;;;;;;;;;;;;;;;;4377775;32;66861;-72
2023/12/28 10:48:40;;;;;;;6.37;4.25;;;;;;;;;;4378761;32;67466;-72
2023/12/28 10:51:27;;;;;;;6.12;4.40;;;;;;;;;;4357285;32;57486;-72
2023/12/28 10:54:44;;;;;;;6.43;3.70;;;;;;;;;;4378471;32;70554;-72
2023/12/28 10:57:37;;;;;;;7.28;4.80;;;;;;;;;;4358721;32;66984;-72
2023/12/28 11:00:26;;;;;;;6.62;4.90;;;;;;;;;;4368646;32;68084;-72
2023/12/28 11:03:15;;;;;;;6.85;4.43;;;;;;;;;;4357442;32;59639;-72
2023/12/28 11:06:04;;;;;;;6.07;4.18;;;;;;;;;;4346007;32;71652;-72
2023/12/28 11:08:54;;;;;;;7.65;4.28;;;;;;;;;;4357956;32;69047;-72
2023/12/28 11:11:42;;;;;;;6.00;4.53;;;;;;;;;;4378745;32;68132;-72
2023/12/28 11:14:29;;;;;;;7.55;4.10;;;;;;;;;;4357352;32;71892;-72
2023/12/28 11:17:16;;;;;;;5.85;3.62;;;;;;;;;;4346625;32;64748;-72
2023/12/28 11:20:07;;;;;;;8.80;4.53;;;;;;;;;;4356483;32;68555;-72
2023/12/28 11:22:53;;;;;;;5.82;3.67;;;;;;;;;;4368663;32;60480;-72
2023/12/28 11:25:40;;;;;;;6.25;4.10;;;;;;;;;;4367221;32;71329;-72
2023/12/28 11:28:27;;;;;;;6.03;4.57;;;;;;;;;;4369393;32;64798;-72
2023/12/28 11:31:16;;;;;;;6.72;4.30;;;;;;;;;;4357703;32;66691;-72
2023/12/28 11:34:07;;;;;;;6.65;4.57;;;;;;;;;;4368220;32;60138;-72
2023/12/28 11:36:55;;;;;;;5.60;4.15;;;;;;;;;;4346160;32;71445;-72
2023/12/28 11:39:44;;;;;;;6.20;4.05;;;;;;;;;;4357089;32;69416;-75
2023/12/28 11:42:30;;;;;;;1.33;0.82;;;;;;;;;;4367932;32;67734;-77
2023/12/28 11:45:18;;;;;;;6.10;3.05;;;;;;;;;;4377823;32;71803;-76
2023/12/28 11:48:05;;;;;;;3.65;2.78;;;;;;;;;;4345687;32;67142;-75
2023/12/28 11:50:58;;;;;;;5.55;3.80;;;;;;;;;;4335968;32;68546;-74
2023/12/28 11:53:46;;;;;;;5.32;2.78;;;;;;;;;;4356372;32;66255;-75
2023/12/28 11:56:33;;;;;;;6.20;3.62;;;;;;;;;;4357032;32;71896;-72
2023/12/28 11:59:20;;;;;;;3.85;2.47;;;;;;;;;;4368160;32;65956;-75
2023/12/28 12:02:08;;;;;;;6.37;3.80;;;;;;;;;;4368649;32;67516;-75
2023/12/28 12:04:57;;;;;;;4.97;3.17;;;;;;;;;;4359332;32;59218;-75
2023/12/28 12:07:42;;;;;;;4.80;2.87;;;;;;;;;;3869151;36;43422;-75
2023/12/28 12:10:29;;;;;;;5.93;3.90;;;;;;;;;;4411689;32;61266;-74
2023/12/28 12:13:16;;;;;;;3.12;1.80;;;;;;;;;;4404968;32;70739;-74
2023/12/28 12:16:05;;;;;;;5.40;3.00;;;;;;;;;;4401099;32;69451;-75
2023/12/28 12:18:52;;;;;;;6.78;4.43;;;;;;;;;;4390340;32;67675;-75
2023/12/28 12:21:39;;;;;;;5.32;3.42;;;;;;;;;;4404076;32;71998;-73
2023/12/28 12:24:26;;;;;;;5.70;3.45;;;;;;;;;;4403435;32;65974;-74
2023/12/28 12:27:12;;;;;;;6.12;4.12;;;;;;;;;;4413959;32;66248;-74
2023/12/28 12:29:59;;;;;;;5.30;3.50;;;;;;;;;;4403561;32;60385;-74
2023/12/28 12:32:45;;;;;;;4.62;2.80;;;;;;;;;;3847406;37;43755;-74
2023/12/28 12:35:31;;;;;;;;;;;;;;;;;;4389166;32;59285;-74
2023/12/28 12:38:18;;;;;;;3.75;2.65;;;;;;;;;;4415646;32;70320;-74
2023/12/28 12:41:05;;;;;;;4.03;2.72;;;;;;;;;;4405299;32;69537;-71
2023/12/28 12:43:51;;;;;;;5.37;3.58;;;;;;;;;;4402004;32;66924;-72
2023/12/28 12:46:38;;;;;;;5.15;3.70;;;;;;;;;;4399114;32;71748;-72
2023/12/28 12:49:25;;;;;;;6.03;3.62;;;;;;;;;;4398220;32;66534;-72
2023/12/28 12:52:13;;;;;;;5.32;3.33;;;;;;;;;;4376463;32;67912;-73
2023/12/28 12:55:00;;;;;;;6.75;3.83;;;;;;;;;;4399099;32;59437;-73
2023/12/28 12:57:46;;;;;;;6.35;4.03;;;;;;;;;;4409333;32;70874;-72
2023/12/28 13:00:27;;;;;;;6.35;4.10;;;;;;;;;;3868621;36;43469;-73
2023/12/28 13:03:14;;;;;;;6.70;3.50;;;;;;;;;;4393135;32;60127;-71
2023/12/28 13:06:03;;;;;;;6.60;3.85;;;;;;;;;;4403381;32;70096;-74
2023/12/28 13:08:50;;;;;;;3.25;2.00;;;;;;;;;;4411362;32;70194;-74
2023/12/28 13:11:37;;;;;;;6.05;3.75;;;;;;;;;;4400963;32;68232;-74
2023/12/28 13:14:24;;;;;;;5.12;3.37;;;;;;;;;;4389810;32;70451;-74
2023/12/28 13:17:11;;;;;;;5.45;3.10;;;;;;;;;;4426206;32;65878;-74
2023/12/28 13:19:58;;;;;;;5.47;3.65;;;;;;;;;;4414014;32;66071;-74
2023/12/28 13:22:45;;;;;;;5.65;3.33;;;;;;;;;;4392942;32;60173;-75
2023/12/28 13:25:31;;;;;;;4.82;3.35;;;;;;;;;;4392357;32;71721;-75
2023/12/28 13:28:18;;;;;;;5.00;3.12;;;;;;;;;;4411285;32;67307;-76
2023/12/28 13:31:02;;;;;;;4.70;3.20;;;;;;;;;;3847488;37;43520;-76
2023/12/28 13:33:50;;;;;;;5.37;3.42;;;;;;;;;;4399335;32;59998;-75
2023/12/28 13:36:37;;;;;;;4.43;3.42;;;;;;;;;;4409825;32;70529;-75
2023/12/28 13:39:24;;;;;;;4.30;2.90;;;;;;;;;;4398504;32;70276;-77
2023/12/28 13:42:11;;;;;;;4.07;2.40;;;;;;;;;;4398328;32;68779;-75
2023/12/28 13:44:57;;;;;;;;;;;;;;;;;;4377497;32;73033;-76
2023/12/28 13:47:44;;;;;;;4.15;2.78;;;;;;;;;;4404518;32;66591;-76
2023/12/28 13:50:31;;;;;;;6.32;3.15;;;;;;;;;;4409031;32;68520;-74
2023/12/28 13:53:18;;;;;;;6.05;3.55;;;;;;;;;;4399030;32;60289;-74
2023/12/28 13:56:05;;;;;;;5.62;2.78;;;;;;;;;;4383281;32;71714;-73
2023/12/28 13:59:37;;;;;;;5.75;3.28;;;;;;;;;;3847463;37;43486;-72
2023/12/28 14:02:21;;;;;;;4.20;2.58;;;;;;;;;;3847392;37;43494;-73
2023/12/28 14:05:08;;;;;;;5.50;3.37;;;;;;;;;;4388425;32;59268;-74
2023/12/28 14:07:55;;;;;;;5.12;2.75;;;;;;;;;;4388176;32;70180;-72
2023/12/28 14:10:41;;;;;;;6.78;3.20;;;;;;;;;;4398421;32;70012;-76
2023/12/28 14:13:28;;;;;;;5.10;3.15;;;;;;;;;;4398110;32;68126;-75
2023/12/28 14:16:15;;;;;;;1.48;0.93;;;;;;;;;;4398210;32;73073;-74
2023/12/28 14:19:02;;;;;;;2.37;1.95;;;;;;;;;;4398922;32;66364;-73
2023/12/28 14:21:49;;;;;;;2.65;1.62;;;;;;;;;;4410724;32;67242;-73
2023/12/28 14:24:36;;;;;;;2.25;1.65;;;;;;;;;;4388295;32;60501;-73
2023/12/28 14:27:23;;;;;;;3.50;2.15;;;;;;;;;;4376671;32;72467;-71
2023/12/28 14:30:10;;;;;;;2.87;1.80;;;;;;;;;;4398271;32;65907;-73
2023/12/28 14:32:57;;;;;;;3.42;1.98;;;;;;;;;;4398249;32;68440;-72
2023/12/28 14:35:44;;;;;;;3.95;2.20;;;;;;;;;;4388240;32;59207;-73
2023/12/28 14:38:31;;;;;;;3.80;2.62;;;;;;;;;;4398432;32;69165;-76
2023/12/28 14:41:18;;;;;;;4.65;3.22;;;;;;;;;;4397737;32;69264;-75
2023/12/28 14:44:05;;;;;;;5.15;3.10;;;;;;;;;;4398405;32;66780;-74
2023/12/28 14:46:52;;;;;;;4.30;2.62;;;;;;;;;;4387488;32;71680;-76
2023/12/28 14:49:38;;;;;;;5.80;3.20;;;;;;;;;;4398187;32;66972;-76
2023/12/28 14:52:25;;;;;;;5.07;3.08;;;;;;;;;;4398240;32;70000;-74
2023/12/28 14:55:12;;;;;;;5.68;2.87;;;;;;;;;;4397601;32;68809;-75
2023/12/28 14:57:59;;;;;;;5.70;3.35;;;;;;;;;;4397411;32;70720;-75
2023/12/28 15:00:46;;;;;;;4.85;2.85;;;;;;;;;;4408681;32;65191;-75
2023/12/28 15:03:33;;;;;;;3.95;2.83;;;;;;;;;;4408933;32;67280;-75
2023/12/28 15:06:19;;;;;;;4.57;2.83;;;;;;;;;;4409501;32;60019;-75
2023/12/28 15:09:06;;;;;;;3.50;2.17;;;;;;;;;;4387570;32;70608;-73
2023/12/28 15:11:53;;;;;;;5.82;3.03;;;;;;;;;;4406122;32;68996;-77
2023/12/28 15:14:39;;;;;;;;;;;;;;;;;;4399068;32;67707;-74
2023/12/28 15:17:26;;;;;;;3.40;1.87;;;;;;;;;;4377765;32;59872;-77
2023/12/28 15:20:14;;;;;;;5.68;2.85;;;;;;;;;;4377049;32;69623;-76
2023/12/28 15:23:01;;;;;;;4.53;2.47;;;;;;;;;;4376265;32;69602;-74
2023/12/28 15:25:47;;;;;;;;;;;;;;;;;;4366392;32;65732;-73
2023/12/28 15:28:34;;;;;;;4.28;2.58;;;;;;;;;;4398291;32;71979;-75
2023/12/28 15:31:21;;;;;;;5.22;2.95;;;;;;;;;;4398514;32;66307;-74
2023/12/28 15:34:08;;;;;;;5.72;3.20;;;;;;;;;;4386586;32;67490;-74
2023/12/28 15:36:55;;;;;;;5.00;2.80;;;;;;;;;;4388117;32;59301;-74
2023/12/28 15:39:42;;;;;;;5.85;3.30;;;;;;;;;;4378182;32;70780;-74
2023/12/28 15:42:29;;;;;;;5.97;3.78;;;;;;;;;;4405526;32;65647;-74
2023/12/28 15:45:16;;;;;;;4.72;2.72;;;;;;;;;;4382573;32;67784;-74
2023/12/28 15:48:02;;;;;;;5.10;3.15;;;;;;;;;;4366665;32;61211;-74
2023/12/28 15:50:49;;;;;;;3.85;2.40;;;;;;;;;;4377140;32;70613;-73
2023/12/28 15:53:36;;;;;;;4.00;2.28;;;;;;;;;;4376994;32;68845;-73
2023/12/28 15:56:24;;;;;;;3.70;2.37;;;;;;;;;;4397836;32;70127;-73
2023/12/28 15:59:10;;;;;;;4.07;2.42;;;;;;;;;;4397936;32;70964;-74
2023/12/28 16:01:55;;;;;;;5.00;3.08;;;;;;;;;;3847321;37;44733;-74
2023/12/28 16:04:42;;;;;;;3.62;2.20;;;;;;;;;;4377130;32;60820;-73
2023/12/28 16:07:28;;;;;;;4.40;2.35;;;;;;;;;;4398495;32;69510;-73
2023/12/28 16:10:15;;;;;;;4.78;2.53;;;;;;;;;;4409663;32;69157;-73
2023/12/28 16:13:01;;;;;;;4.90;2.42;;;;;;;;;;4399131;32;68098;-73
2023/12/28 16:15:49;;;;;;;5.70;2.95;;;;;;;;;;4377022;32;71750;-74
2023/12/28 16:18:36;;;;;;;7.55;3.03;;;;;;;;;;4388076;32;64221;-73
2023/12/28 16:21:24;;;;;;;6.40;3.37;;;;;;;;;;4409798;32;66084;-74
2023/12/28 16:24:10;;;;;;;4.07;2.58;;;;;;;;;;4377103;32;60315;-74
2023/12/28 16:26:57;;;;;;;5.10;2.60;;;;;;;;;;4398222;32;72237;-74
2023/12/28 16:29:44;;;;;;;4.72;2.65;;;;;;;;;;4399008;32;65537;-73
2023/12/28 16:32:31;;;;;;;4.78;2.53;;;;;;;;;;4398933;32;67697;-73
2023/12/28 16:35:18;;;;;;;5.35;2.85;;;;;;;;;;4376483;32;62369;-73
2023/12/28 16:38:05;;;;;;;3.97;2.58;;;;;;;;;;4398672;32;70166;-73
2023/12/28 16:40:51;;;;;;;4.80;2.90;;;;;;;;;;4387949;32;69650;-74
2023/12/28 16:43:41;;;;;;;5.68;2.70;;;;;;;;;;4387434;32;66641;-74
2023/12/28 16:46:28;;;;;;;4.22;2.47;;;;;;;;;;4376748;32;73207;-72
2023/12/28 16:49:15;;;;;;;6.22;2.72;;;;;;;;;;4410705;32;65214;-74
2023/12/28 16:52:02;;;;;;;4.30;2.33;;;;;;;;;;4410460;32;69361;-74
2023/12/28 16:54:49;;;;;;;;;;;;;;;;;;4393640;32;69662;-73
2023/12/28 16:57:35;;;;;;;4.10;2.47;;;;;;;;;;4393516;32;73137;-73
2023/12/28 17:00:23;;;;;;;;;;;;;;;;;;4392996;32;66676;-73
2023/12/28 17:03:09;;;;;;;3.85;2.45;;;;;;;;;;4393484;32;68623;-73
2023/12/28 17:05:57;;;;;;;5.12;1.85;;;;;;;;;;4382584;32;59827;-73